createdAt,value
2022-08-22T00:00:13.528Z,11.43
2022-08-22T00:02:56.264Z,11.98
2022-08-22T00:02:58.382Z,13.50
2022-08-22T00:03:12.288Z,10.02
2022-08-22T00:03:18.620Z,12.07
2022-08-22T00:06:04.018Z,12.82
2022-08-22T00:08:46.799Z,11.88
2022-08-22T00:11:27.065Z,13.50
2022-08-22T00:14:02.317Z,13.20
2022-08-22T00:16:42.496Z,12.48
2022-08-22T00:19:26.399Z,11.77
2022-08-22T00:22:03.957Z,11.52
2022-08-22T00:24:39.344Z,11.02
2022-08-22T00:27:16.947Z,13.68
2022-08-22T00:29:53.487Z,9.63
2022-08-22T00:32:31.771Z,9.25
2022-08-22T00:35:09.950Z,12.27
2022-08-22T00:37:44.997Z,13.65
2022-08-22T00:40:36.616Z,9.38
2022-08-22T00:43:59.621Z,11.88
2022-08-22T00:47:10.361Z,10.38
2022-08-22T00:53:00.798Z,13.23
2022-08-22T00:55:50.543Z,14.40
2022-08-22T01:02:06.476Z,12.35
2022-08-22T01:04:54.037Z,11.98
2022-08-22T01:07:52.988Z,11.00
2022-08-22T01:10:43.992Z,8.15
2022-08-22T01:13:38.215Z,12.85
2022-08-22T01:16:29.081Z,12.70
2022-08-22T01:19:25.791Z,9.45
2022-08-22T01:22:48.308Z,12.27
2022-08-22T01:26:25.470Z,11.87
2022-08-22T01:29:37.106Z,14.63
2022-08-22T01:33:16.638Z,13.02
2022-08-22T01:36:20.876Z,14.27
2022-08-22T01:39:50.864Z,12.55
2022-08-22T01:42:43.836Z,13.25
2022-08-22T01:45:56.770Z,11.50
2022-08-22T01:48:37.954Z,14.00
2022-08-22T01:51:21.233Z,9.77
2022-08-22T01:54:00.088Z,12.55
2022-08-22T01:56:37.504Z,14.63
2022-08-22T01:59:11.300Z,12.20
2022-08-22T02:02:02.110Z,12.10
2022-08-22T02:04:40.809Z,15.55
2022-08-22T02:07:21.955Z,10.10
2022-08-22T02:10:14.363Z,12.88
2022-08-22T02:15:28.258Z,12.15
2022-08-22T02:18:19.979Z,12.43
2022-08-22T02:21:07.036Z,10.93
2022-08-22T02:23:52.527Z,9.02
2022-08-22T02:26:39.135Z,13.10
2022-08-22T02:29:15.728Z,13.68
2022-08-22T02:31:56.992Z,10.55
2022-08-22T02:34:40.380Z,10.27
2022-08-22T02:37:20.146Z,12.73
2022-08-22T02:40:04.440Z,12.15
2022-08-22T02:42:43.828Z,9.45
2022-08-22T02:45:36.132Z,19.17
2022-08-22T02:48:16.588Z,17.02
2022-08-22T02:50:54.002Z,11.55
2022-08-22T02:53:34.602Z,16.27
2022-08-22T02:56:11.958Z,12.13
2022-08-22T02:58:49.995Z,9.98
2022-08-22T03:01:40.122Z,13.82
2022-08-22T03:04:28.977Z,12.27
2022-08-22T03:07:16.091Z,11.30
2022-08-22T03:09:53.130Z,12.68
2022-08-22T03:12:33.588Z,14.18
2022-08-22T03:15:12.093Z,13.55
2022-08-22T03:17:51.458Z,12.80
2022-08-22T03:20:46.489Z,12.60
2022-08-22T03:23:27.590Z,12.75
2022-08-22T03:26:07.686Z,10.80
2022-08-22T03:28:59.227Z,9.38
2022-08-22T03:31:33.447Z,13.00
2022-08-22T03:34:23.458Z,10.80
2022-08-22T03:37:12.315Z,10.07
2022-08-22T03:39:54.588Z,13.05
2022-08-22T03:43:08.756Z,12.43
2022-08-22T03:46:36.449Z,14.20
2022-08-22T03:54:30.488Z,12.07
2022-08-22T03:57:50.642Z,14.93
2022-08-22T04:00:48.813Z,19.73
2022-08-22T04:04:20.508Z,15.13
2022-08-22T04:07:35.575Z,13.40
2022-08-22T04:11:02.688Z,17.05
2022-08-22T04:14:14.895Z,17.88
2022-08-22T04:17:24.661Z,15.75
2022-08-22T04:20:41.857Z,17.70
2022-08-22T04:23:50.508Z,16.70
2022-08-22T04:26:31.198Z,19.42
2022-08-22T04:29:10.711Z,16.05
2022-08-22T04:31:48.863Z,17.73
2022-08-22T04:34:27.295Z,17.20
2022-08-22T04:37:01.334Z,17.10
2022-08-22T04:39:41.728Z,14.40
2022-08-22T04:42:32.371Z,16.88
2022-08-22T04:45:11.368Z,21.48
2022-08-22T04:47:47.236Z,18.25
2022-08-22T04:50:30.825Z,19.30
2022-08-22T04:53:28.033Z,17.67
2022-08-22T04:56:12.885Z,15.50
2022-08-22T04:58:51.135Z,16.30
2022-08-22T05:01:25.847Z,17.77
2022-08-22T05:04:01.989Z,16.67
2022-08-22T05:06:35.679Z,16.88
2022-08-22T05:09:16.074Z,19.13
2022-08-22T05:11:48.966Z,17.38
2022-08-22T05:14:26.496Z,17.90
2022-08-22T05:16:59.238Z,18.27
2022-08-22T05:19:35.074Z,17.55
2022-08-22T05:22:06.349Z,16.45
2022-08-22T05:24:42.357Z,21.27
2022-08-22T05:27:15.996Z,17.67
2022-08-22T05:29:51.205Z,18.77
2022-08-22T05:32:29.229Z,17.27
2022-08-22T05:35:03.254Z,15.25
2022-08-22T05:37:41.780Z,15.13
2022-08-22T05:40:21.517Z,15.63
2022-08-22T05:42:51.848Z,17.60
2022-08-22T05:45:23.812Z,15.68
2022-08-22T05:47:59.477Z,15.48
2022-08-22T05:50:38.194Z,15.27
2022-08-22T05:53:14.573Z,13.32
2022-08-22T05:55:57.254Z,18.38
2022-08-22T05:58:50.033Z,14.98
2022-08-22T06:01:31.414Z,14.05
2022-08-22T06:04:18.892Z,12.90
2022-08-22T06:06:56.613Z,13.90
2022-08-22T06:09:35.625Z,15.02
2022-08-22T06:12:21.786Z,16.88
2022-08-22T06:15:03.450Z,13.73
2022-08-22T06:17:48.952Z,14.02
2022-08-22T06:20:29.545Z,14.65
2022-08-22T06:23:03.574Z,15.70
2022-08-22T06:25:36.501Z,12.63
2022-08-22T06:28:11.282Z,19.35
2022-08-22T06:30:42.345Z,14.73
2022-08-22T06:33:20.502Z,12.18
2022-08-22T06:36:11.854Z,12.82
2022-08-22T06:38:59.064Z,11.02
2022-08-22T06:41:32.133Z,11.48
2022-08-22T06:44:02.796Z,11.40
2022-08-22T06:46:37.176Z,10.80
2022-08-22T06:49:10.886Z,11.30
2022-08-22T06:53:47.617Z,11.80
2022-08-22T06:56:25.620Z,12.05
2022-08-22T06:59:00.455Z,13.13
2022-08-22T07:01:36.973Z,13.95
2022-08-22T07:04:10.798Z,12.52
2022-08-22T07:06:43.545Z,17.20
2022-08-22T07:09:26.515Z,12.90
2022-08-22T07:11:59.441Z,12.15
2022-08-22T07:14:33.355Z,10.50
2022-08-22T07:17:06.016Z,13.27
2022-08-22T07:19:38.358Z,12.32
2022-08-22T07:22:15.883Z,13.68
2022-08-22T07:24:52.924Z,13.60
2022-08-22T07:27:48.855Z,12.52
2022-08-22T07:30:27.953Z,11.52
2022-08-22T07:33:21.285Z,12.27
2022-08-22T07:36:02.219Z,11.98
2022-08-22T07:38:43.145Z,12.05
2022-08-22T07:41:20.201Z,10.52
2022-08-22T07:43:54.325Z,11.05
2022-08-22T07:46:32.371Z,11.32
2022-08-22T07:49:15.583Z,10.15
2022-08-22T07:51:49.897Z,11.10
2022-08-22T07:54:27.109Z,12.32
2022-08-22T07:57:04.531Z,11.15
2022-08-22T07:59:37.985Z,11.25
2022-08-22T08:02:12.912Z,10.73
2022-08-22T08:04:43.947Z,11.50
2022-08-22T08:07:18.631Z,10.77
2022-08-22T08:09:53.164Z,12.02
2022-08-22T08:12:33.207Z,15.52
2022-08-22T08:15:06.510Z,9.00
2022-08-22T08:17:38.094Z,14.23
2022-08-22T08:20:12.518Z,12.05
2022-08-22T08:22:45.803Z,11.82
2022-08-22T08:25:19.403Z,11.65
2022-08-22T08:28:09.831Z,11.52
2022-08-22T08:30:46.061Z,10.85
2022-08-22T08:33:24.757Z,10.57
2022-08-22T08:36:02.418Z,11.93
2022-08-22T08:38:39.674Z,11.35
2022-08-22T08:41:58.939Z,11.77
2022-08-22T08:45:18.529Z,11.00
2022-08-22T08:48:09.429Z,12.82
2022-08-22T08:51:12.066Z,10.68
2022-08-22T08:54:10.616Z,11.18
2022-08-22T08:56:54.282Z,12.15
2022-08-22T08:59:44.158Z,12.32
2022-08-22T09:02:50.203Z,13.88
2022-08-22T09:05:59.929Z,11.88
2022-08-22T09:09:05.299Z,10.48
2022-08-22T09:12:17.862Z,10.75
2022-08-22T09:15:14.327Z,11.52
2022-08-22T09:18:23.398Z,10.70
2022-08-22T09:21:35.503Z,11.75
2022-08-22T09:24:54.037Z,11.75
2022-08-22T09:27:36.141Z,13.00
2022-08-22T09:32:58.245Z,12.70
2022-08-22T09:35:42.543Z,10.68
2022-08-22T09:38:34.724Z,14.23
2022-08-22T09:41:21.725Z,10.35
2022-08-22T09:44:01.945Z,12.40
2022-08-22T09:46:42.999Z,12.77
2022-08-22T09:49:22.135Z,10.50
2022-08-22T09:53:57.824Z,11.18
2022-08-22T09:56:39.781Z,9.30
2022-08-22T09:59:19.119Z,9.50
2022-08-22T10:01:59.544Z,10.50
2022-08-22T10:04:58.241Z,9.80
2022-08-22T10:08:02.993Z,9.05
2022-08-22T10:10:56.456Z,10.77
2022-08-22T10:13:44.644Z,10.85
2022-08-22T10:16:38.773Z,9.07
2022-08-22T10:19:19.773Z,11.15
2022-08-22T10:22:22.682Z,9.18
2022-08-22T10:25:24.658Z,10.35
2022-08-22T10:28:18.980Z,8.88
2022-08-22T10:31:03.736Z,9.20
2022-08-22T10:33:39.984Z,10.32
2022-08-22T10:36:14.437Z,12.23
2022-08-22T10:38:49.398Z,11.52
2022-08-22T10:41:33.009Z,9.07
2022-08-22T10:44:16.027Z,17.02
2022-08-22T10:46:55.213Z,21.33
2022-08-22T10:49:34.691Z,17.85
2022-08-22T10:52:15.495Z,22.20
2022-08-22T10:54:49.917Z,20.30
2022-08-22T10:57:50.679Z,18.50
2022-08-22T11:00:50.037Z,25.83
2022-08-22T11:03:26.579Z,29.08
2022-08-22T11:06:01.201Z,22.15
2022-08-22T11:09:15.722Z,22.83
2022-08-22T11:11:54.447Z,17.35
2022-08-22T11:14:58.486Z,18.40
2022-08-22T11:18:20.769Z,16.77
2022-08-22T11:21:01.868Z,14.73
2022-08-22T11:23:45.238Z,11.80
2022-08-22T11:26:38.307Z,15.10
2022-08-22T11:29:28.855Z,20.05
2022-08-22T11:32:07.969Z,15.55
2022-08-22T11:34:57.422Z,16.70
2022-08-22T11:37:56.374Z,11.15
2022-08-22T11:40:42.671Z,14.27
2022-08-22T11:43:46.424Z,17.33
2022-08-22T11:46:25.556Z,15.85
2022-08-22T11:49:32.630Z,17.15
2022-08-22T11:52:18.779Z,12.35
2022-08-22T11:55:21.997Z,13.70
2022-08-22T11:57:56.022Z,12.00
2022-08-22T12:00:36.231Z,12.25
2022-08-22T12:03:28.481Z,16.70
2022-08-22T12:06:05.459Z,13.27
2022-08-22T12:09:23.078Z,9.93
2022-08-22T12:12:09.807Z,11.73
2022-08-22T12:14:48.341Z,10.70
2022-08-22T12:17:55.080Z,10.95
2022-08-22T12:20:55.215Z,10.57
2022-08-22T12:23:55.735Z,11.75
2022-08-22T12:26:37.906Z,11.70
2022-08-22T12:29:33.782Z,11.82
2022-08-22T12:33:09.997Z,14.05
2022-08-22T12:36:19.056Z,10.18
2022-08-22T12:39:24.737Z,16.40
2022-08-22T12:42:52.437Z,17.50
2022-08-22T12:45:44.421Z,11.40
2022-08-22T12:48:37.371Z,14.77
2022-08-22T12:54:17.177Z,13.75
2022-08-22T12:56:57.793Z,11.38
2022-08-22T12:59:32.353Z,11.13
2022-08-22T13:02:05.014Z,11.63
2022-08-22T13:04:36.877Z,12.20
2022-08-22T13:07:22.618Z,10.27
2022-08-22T13:09:59.198Z,11.38
2022-08-22T13:12:34.506Z,9.52
2022-08-22T13:15:29.481Z,11.80
2022-08-22T13:18:25.248Z,11.32
2022-08-22T13:23:27.969Z,10.18
2022-08-22T13:26:31.993Z,12.50
2022-08-22T13:29:25.034Z,12.40
2022-08-22T13:32:02.125Z,13.75
2022-08-22T13:34:43.425Z,13.60
2022-08-22T13:37:24.349Z,10.97
2022-08-22T13:40:01.116Z,10.02
2022-08-22T13:42:40.098Z,11.68
2022-08-22T13:45:19.279Z,13.77
2022-08-22T13:47:59.626Z,10.45
2022-08-22T13:50:37.482Z,11.27
2022-08-22T13:53:31.251Z,11.90
2022-08-22T13:56:15.778Z,12.70
2022-08-22T13:58:51.794Z,12.05
2022-08-22T14:01:39.222Z,10.48
2022-08-22T14:04:33.292Z,8.63
2022-08-22T14:07:34.382Z,11.05
2022-08-22T14:10:14.937Z,10.40
2022-08-22T14:13:08.478Z,9.32
2022-08-22T14:15:44.811Z,12.38
2022-08-22T14:18:22.288Z,7.53
2022-08-22T14:21:40.669Z,8.23
2022-08-22T14:24:20.739Z,9.82
2022-08-22T14:27:05.431Z,9.10
2022-08-22T14:29:43.854Z,10.23
2022-08-22T14:32:41.989Z,10.00
2022-08-22T14:35:23.409Z,9.77
2022-08-22T14:38:17.297Z,9.73
2022-08-22T14:40:53.825Z,10.05
2022-08-22T14:43:48.711Z,10.35
2022-08-22T14:46:27.606Z,10.82
2022-08-22T14:49:30.892Z,10.90
2022-08-22T14:52:10.150Z,11.75
2022-08-22T14:54:50.943Z,12.32
2022-08-22T14:57:21.068Z,11.52
2022-08-22T14:59:53.085Z,9.50
2022-08-22T15:02:30.285Z,9.90
2022-08-22T15:05:21.137Z,9.45
2022-08-22T15:07:59.523Z,11.93
2022-08-22T15:10:34.507Z,9.32
2022-08-22T15:13:09.079Z,10.30
2022-08-22T15:15:52.517Z,10.65
2022-08-22T15:18:39.041Z,13.60
2022-08-22T15:21:16.037Z,9.75
2022-08-22T15:23:48.796Z,8.95
2022-08-22T15:26:30.489Z,9.73
2022-08-22T15:29:09.641Z,13.13
2022-08-22T15:31:46.489Z,10.05
2022-08-22T15:34:26.776Z,14.95
2022-08-22T15:37:32.689Z,11.77
2022-08-22T15:40:13.451Z,11.40
2022-08-22T15:42:47.254Z,11.10
2022-08-22T15:45:34.058Z,12.40
2022-08-22T15:48:09.000Z,10.02
2022-08-22T15:54:00.969Z,9.43
2022-08-22T15:56:35.564Z,11.73
2022-08-22T15:59:53.707Z,13.15
2022-08-22T16:02:35.436Z,10.90
2022-08-22T16:05:27.334Z,14.50
2022-08-22T16:08:05.937Z,11.77
2022-08-22T16:10:43.858Z,11.85
2022-08-22T16:13:43.078Z,13.27
2022-08-22T16:16:56.535Z,11.68
2022-08-22T16:19:27.556Z,13.02
2022-08-22T16:22:20.673Z,9.32
2022-08-22T16:25:11.524Z,12.60
2022-08-22T16:27:59.245Z,10.18
2022-08-22T16:30:40.867Z,9.65
2022-08-22T16:33:17.938Z,11.00
2022-08-22T16:36:20.885Z,11.50
2022-08-22T16:38:54.331Z,11.40
2022-08-22T16:41:42.055Z,14.23
2022-08-22T16:44:45.316Z,11.60
2022-08-22T16:47:19.346Z,12.68
2022-08-22T16:50:12.663Z,11.23
2022-08-22T16:53:07.374Z,12.32
2022-08-22T16:55:55.559Z,14.10
2022-08-22T16:59:14.098Z,12.43
2022-08-22T17:02:40.416Z,12.35
2022-08-22T17:05:30.960Z,14.45
2022-08-22T17:08:34.277Z,12.02
2022-08-22T17:11:18.799Z,13.13
2022-08-22T17:14:15.164Z,13.90
2022-08-22T17:17:00.912Z,16.25
2022-08-22T17:20:03.255Z,13.43
2022-08-22T17:22:42.936Z,12.95
2022-08-22T17:25:23.992Z,16.27
2022-08-22T17:28:09.934Z,16.10
2022-08-22T17:30:46.947Z,10.93
2022-08-22T17:33:34.703Z,12.02
2022-08-22T17:36:21.717Z,12.70
2022-08-22T17:39:15.039Z,12.97
2022-08-22T17:41:54.635Z,10.50
2022-08-22T17:44:39.395Z,11.77
2022-08-22T17:47:17.531Z,10.57
2022-08-22T17:49:58.631Z,13.40
2022-08-22T17:52:39.412Z,13.52
2022-08-22T17:55:19.370Z,11.60
2022-08-22T17:57:54.758Z,11.82
2022-08-22T18:00:31.634Z,15.88
2022-08-22T18:03:10.418Z,11.85
2022-08-22T18:05:50.512Z,14.32
2022-08-22T18:08:38.053Z,16.73
2022-08-22T18:11:21.751Z,16.73
2022-08-22T18:13:58.073Z,12.23
2022-08-22T18:16:44.459Z,14.88
2022-08-22T18:19:44.569Z,14.35
2022-08-22T18:22:29.735Z,13.07
2022-08-22T18:25:08.056Z,13.90
2022-08-22T18:27:49.137Z,14.57
2022-08-22T18:30:22.986Z,12.38
2022-08-22T18:33:00.316Z,11.27
2022-08-22T18:35:42.181Z,10.30
2022-08-22T18:38:26.634Z,8.80
2022-08-22T18:41:14.787Z,13.88
2022-08-22T18:43:48.461Z,10.85
2022-08-22T18:46:46.392Z,14.98
2022-08-22T18:49:55.485Z,12.27
2022-08-22T18:53:45.993Z,13.52
2022-08-22T18:56:40.690Z,15.43
2022-08-22T18:59:50.672Z,11.43
2022-08-22T19:03:09.654Z,17.83
2022-08-22T19:06:16.490Z,16.08
2022-08-22T19:09:22.406Z,12.63
2022-08-22T19:12:08.885Z,11.77
2022-08-22T19:15:14.292Z,13.88
2022-08-22T19:18:27.888Z,14.43
2022-08-22T19:21:45.576Z,13.27
2022-08-22T19:25:03.078Z,13.55
2022-08-22T19:27:35.231Z,15.35
2022-08-22T19:33:06.902Z,11.00
2022-08-22T19:36:06.945Z,11.20
2022-08-22T19:39:10.633Z,12.77
2022-08-22T19:41:54.285Z,11.48
2022-08-22T19:44:50.206Z,9.10
2022-08-22T19:47:32.605Z,8.63
2022-08-22T19:52:58.726Z,9.27
2022-08-22T19:55:58.474Z,12.57
2022-08-22T19:58:48.021Z,15.63
2022-08-22T20:01:45.970Z,10.77
2022-08-22T20:04:55.499Z,10.98
2022-08-22T20:07:53.135Z,7.78
2022-08-22T20:10:38.518Z,10.45
2022-08-22T20:13:12.602Z,11.73
2022-08-22T20:16:13.677Z,10.50
2022-08-22T20:19:20.159Z,9.30
2022-08-22T20:22:00.205Z,8.85
2022-08-22T20:24:40.258Z,9.52
2022-08-22T20:27:17.929Z,7.20
2022-08-22T20:29:56.340Z,8.00
2022-08-22T20:32:28.266Z,8.93
2022-08-22T20:35:00.640Z,8.77
2022-08-22T20:38:03.357Z,14.90
2022-08-22T20:40:54.496Z,10.77
2022-08-22T20:43:34.652Z,8.25
2022-08-22T20:46:21.484Z,9.77
2022-08-22T20:48:57.346Z,8.30
2022-08-22T20:51:29.778Z,7.95
2022-08-22T20:54:10.187Z,9.27
2022-08-22T20:56:52.957Z,8.80
2022-08-22T20:59:37.334Z,9.57
2022-08-22T21:02:17.588Z,9.93
2022-08-22T21:05:00.314Z,7.65
2022-08-22T21:07:34.304Z,8.52
2022-08-22T21:10:26.178Z,8.32
2022-08-22T21:13:10.418Z,8.13
2022-08-22T21:15:47.333Z,8.18
2022-08-22T21:18:28.999Z,8.23
2022-08-22T21:21:16.906Z,10.73
2022-08-22T21:23:50.559Z,9.98
2022-08-22T21:26:27.141Z,8.82
2022-08-22T21:29:01.960Z,8.40
2022-08-22T21:31:34.759Z,9.25
2022-08-22T21:34:06.154Z,7.00
2022-08-22T21:36:40.878Z,7.83
2022-08-22T21:39:18.016Z,8.10
2022-08-22T21:41:53.900Z,8.50
2022-08-22T21:44:35.222Z,8.77
2022-08-22T21:47:30.973Z,8.73
2022-08-22T21:53:33.284Z,9.82
2022-08-22T21:56:15.366Z,10.15
2022-08-22T21:58:46.596Z,9.47
2022-08-22T22:01:32.352Z,10.60
2022-08-22T22:04:02.213Z,7.57
2022-08-22T22:06:31.699Z,13.00
2022-08-22T22:09:02.787Z,11.63
2022-08-22T22:11:32.337Z,12.00
2022-08-22T22:14:01.864Z,11.85
2022-08-22T22:16:32.853Z,10.73
2022-08-22T22:19:02.897Z,10.57
2022-08-22T22:21:32.316Z,12.00
2022-08-22T22:24:03.238Z,13.70
2022-08-22T22:26:33.954Z,15.38
2022-08-22T22:29:05.214Z,10.77
2022-08-22T22:31:34.687Z,13.00
2022-08-22T22:34:04.254Z,10.77
2022-08-22T22:36:33.845Z,11.32
2022-08-22T22:39:08.453Z,11.68
2022-08-22T22:41:39.528Z,13.25
2022-08-22T22:44:08.999Z,10.60
2022-08-22T22:46:38.614Z,12.55
2022-08-22T22:49:08.132Z,11.10
2022-08-22T22:51:37.494Z,11.82
2022-08-22T22:54:08.526Z,10.23
2022-08-22T22:56:40.834Z,17.55
2022-08-22T22:59:13.133Z,12.25
2022-08-22T23:04:32.692Z,10.80
2022-08-22T23:07:02.385Z,10.40
2022-08-22T23:09:38.797Z,10.90
2022-08-22T23:12:15.976Z,11.38
2022-08-22T23:14:45.785Z,10.55
2022-08-22T23:17:16.283Z,10.90
2022-08-22T23:19:46.506Z,10.27
2022-08-22T23:22:17.437Z,11.67
2022-08-22T23:24:50.305Z,9.98
2022-08-22T23:27:21.210Z,10.73
2022-08-22T23:29:51.071Z,9.40
2022-08-22T23:32:20.662Z,10.15
2022-08-22T23:34:50.667Z,9.60
2022-08-22T23:37:23.955Z,10.30
2022-08-22T23:39:54.734Z,9.88
2022-08-22T23:42:24.248Z,14.60
2022-08-22T23:44:53.619Z,9.23
2022-08-22T23:47:22.936Z,9.38
2022-08-22T23:49:52.546Z,14.50
2022-08-22T23:52:22.180Z,10.68
2022-08-22T23:54:54.645Z,11.73
2022-08-22T23:57:27.820Z,9.50
2022-08-22T23:59:59.050Z,10.00
